sensor_id;sensor_type;location;lat;lon;timestamp;P1;durP1;ratioP1;P2;durP2;ratioP2
27145;SDS011;17980;51.744;7.190;2022-11-18T00:02:26;5.50;;;2.97;;
27145;SDS011;17980;51.744;7.190;2022-11-18T00:04:53;5.60;;;3.10;;
27145;SDS011;17980;51.744;7.190;2022-11-18T00:07:20;5.87;;;3.03;;
27145;SDS011;17980;51.744;7.190;2022-11-18T00:09:57;5.30;;;3.00;;
27145;SDS011;17980;51.744;7.190;2022-11-18T00:12:25;5.87;;;3.23;;
27145;SDS011;17980;51.744;7.190;2022-11-18T00:15:01;7.73;;;4.00;;
27145;SDS011;17980;51.744;7.190;2022-11-18T00:17:38;9.67;;;4.50;;
27145;SDS011;17980;51.744;7.190;2022-11-18T00:20:06;9.70;;;5.70;;
27145;SDS011;17980;51.744;7.190;2022-11-18T00:22:34;9.73;;;6.23;;
27145;SDS011;17980;51.744;7.190;2022-11-18T00:25:01;9.67;;;5.07;;
27145;SDS011;17980;51.744;7.190;2022-11-18T00:27:38;9.10;;;4.10;;
27145;SDS011;17980;51.744;7.190;2022-11-18T00:30:07;6.13;;;3.97;;
27145;SDS011;17980;51.744;7.190;2022-11-18T00:32:36;4.70;;;3.33;;
27145;SDS011;17980;51.744;7.190;2022-11-18T00:35:04;7.83;;;3.37;;
27145;SDS011;17980;51.744;7.190;2022-11-18T00:37:47;6.67;;;3.30;;
27145;SDS011;17980;51.744;7.190;2022-11-18T00:40:15;7.03;;;2.87;;
27145;SDS011;17980;51.744;7.190;2022-11-18T00:42:42;6.67;;;3.43;;
27145;SDS011;17980;51.744;7.190;2022-11-18T00:45:20;6.30;;;3.60;;
27145;SDS011;17980;51.744;7.190;2022-11-18T00:47:57;6.57;;;3.30;;
27145;SDS011;17980;51.744;7.190;2022-11-18T00:50:24;4.90;;;3.00;;
27145;SDS011;17980;51.744;7.190;2022-11-18T00:52:52;6.23;;;3.37;;
27145;SDS011;17980;51.744;7.190;2022-11-18T00:55:19;4.20;;;2.70;;
27145;SDS011;17980;51.744;7.190;2022-11-18T00:57:57;6.67;;;3.10;;
27145;SDS011;17980;51.744;7.190;2022-11-18T01:00:25;6.80;;;3.00;;
27145;SDS011;17980;51.744;7.190;2022-11-18T01:03:01;7.17;;;3.17;;
27145;SDS011;17980;51.744;7.190;2022-11-18T01:05:29;6.17;;;2.60;;
27145;SDS011;17980;51.744;7.190;2022-11-18T01:07:56;3.43;;;2.27;;
27145;SDS011;17980;51.744;7.190;2022-11-18T01:10:23;3.80;;;2.17;;
27145;SDS011;17980;51.744;7.190;2022-11-18T01:12:50;7.13;;;2.50;;
27145;SDS011;17980;51.744;7.190;2022-11-18T01:15:37;9.73;;;2.80;;
27145;SDS011;17980;51.744;7.190;2022-11-18T01:18:14;6.07;;;2.90;;
27145;SDS011;17980;51.744;7.190;2022-11-18T01:20:43;7.33;;;3.27;;
27145;SDS011;17980;51.744;7.190;2022-11-18T01:23:11;6.80;;;3.07;;
27145;SDS011;17980;51.744;7.190;2022-11-18T01:25:39;9.63;;;2.20;;
27145;SDS011;17980;51.744;7.190;2022-11-18T01:28:17;4.07;;;2.30;;
27145;SDS011;17980;51.744;7.190;2022-11-18T01:30:45;3.60;;;2.20;;
27145;SDS011;17980;51.744;7.190;2022-11-18T01:33:12;3.77;;;2.73;;
27145;SDS011;17980;51.744;7.190;2022-11-18T01:35:40;3.97;;;2.37;;
27145;SDS011;17980;51.744;7.190;2022-11-18T01:38:09;3.90;;;1.90;;
27145;SDS011;17980;51.744;7.190;2022-11-18T01:40:38;4.10;;;2.47;;
27145;SDS011;17980;51.744;7.190;2022-11-18T01:43:15;4.73;;;2.13;;
27145;SDS011;17980;51.744;7.190;2022-11-18T01:45:45;6.03;;;2.53;;
27145;SDS011;17980;51.744;7.190;2022-11-18T01:48:14;8.50;;;2.47;;
27145;SDS011;17980;51.744;7.190;2022-11-18T01:50:45;5.73;;;2.63;;
27145;SDS011;17980;51.744;7.190;2022-11-18T01:53:24;3.47;;;1.80;;
27145;SDS011;17980;51.744;7.190;2022-11-18T01:55:55;6.77;;;2.60;;
27145;SDS011;17980;51.744;7.190;2022-11-18T01:58:26;7.47;;;2.50;;
27145;SDS011;17980;51.744;7.190;2022-11-18T02:01:14;5.83;;;2.23;;
27145;SDS011;17980;51.744;7.190;2022-11-18T02:03:41;7.60;;;2.40;;
27145;SDS011;17980;51.744;7.190;2022-11-18T02:06:10;3.20;;;1.80;;
27145;SDS011;17980;51.744;7.190;2022-11-18T02:08:46;6.17;;;2.27;;
27145;SDS011;17980;51.744;7.190;2022-11-18T02:11:15;5.37;;;1.97;;
27145;SDS011;17980;51.744;7.190;2022-11-18T02:14:03;8.03;;;1.93;;
27145;SDS011;17980;51.744;7.190;2022-11-18T02:16:44;2.90;;;1.83;;
27145;SDS011;17980;51.744;7.190;2022-11-18T02:19:35;3.43;;;2.07;;
27145;SDS011;17980;51.744;7.190;2022-11-18T02:22:20;3.83;;;1.83;;
27145;SDS011;17980;51.744;7.190;2022-11-18T02:24:54;5.07;;;2.20;;
27145;SDS011;17980;51.744;7.190;2022-11-18T02:27:39;3.70;;;2.20;;
27145;SDS011;17980;51.744;7.190;2022-11-18T02:30:25;4.90;;;2.17;;
27145;SDS011;17980;51.744;7.190;2022-11-18T02:32:56;6.90;;;5.13;;
27145;SDS011;17980;51.744;7.190;2022-11-18T02:35:37;3.50;;;3.13;;
27145;SDS011;17980;51.744;7.190;2022-11-18T02:38:07;4.83;;;2.97;;
27145;SDS011;17980;51.744;7.190;2022-11-18T02:40:38;3.90;;;2.60;;
27145;SDS011;17980;51.744;7.190;2022-11-18T02:43:17;4.83;;;2.93;;
27145;SDS011;17980;51.744;7.190;2022-11-18T02:45:47;2.63;;;2.40;;
27145;SDS011;17980;51.744;7.190;2022-11-18T02:48:25;6.13;;;2.40;;
27145;SDS011;17980;51.744;7.190;2022-11-18T02:50:56;5.13;;;2.63;;
27145;SDS011;17980;51.744;7.190;2022-11-18T02:53:34;4.40;;;2.10;;
27145;SDS011;17980;51.744;7.190;2022-11-18T02:56:03;3.47;;;2.40;;
27145;SDS011;17980;51.744;7.190;2022-11-18T02:58:32;5.27;;;2.40;;
27145;SDS011;17980;51.744;7.190;2022-11-18T03:00:59;6.93;;;2.63;;
27145;SDS011;17980;51.744;7.190;2022-11-18T03:03:37;5.07;;;2.73;;
27145;SDS011;17980;51.744;7.190;2022-11-18T03:06:06;7.33;;;2.80;;
27145;SDS011;17980;51.744;7.190;2022-11-18T03:08:37;5.40;;;2.33;;
27145;SDS011;17980;51.744;7.190;2022-11-18T03:11:09;8.43;;;2.63;;
27145;SDS011;17980;51.744;7.190;2022-11-18T03:14:00;3.20;;;2.67;;
27145;SDS011;17980;51.744;7.190;2022-11-18T03:16:36;11.73;;;6.27;;
27145;SDS011;17980;51.744;7.190;2022-11-18T03:19:16;6.73;;;5.00;;
27145;SDS011;17980;51.744;7.190;2022-11-18T03:21:49;5.13;;;3.33;;
27145;SDS011;17980;51.744;7.190;2022-11-18T03:24:19;6.43;;;3.40;;
27145;SDS011;17980;51.744;7.190;2022-11-18T03:26:50;4.67;;;2.70;;
27145;SDS011;17980;51.744;7.190;2022-11-18T03:29:21;5.73;;;3.33;;
27145;SDS011;17980;51.744;7.190;2022-11-18T03:31:52;4.73;;;3.03;;
27145;SDS011;17980;51.744;7.190;2022-11-18T03:34:23;9.73;;;3.40;;
27145;SDS011;17980;51.744;7.190;2022-11-18T03:36:55;6.20;;;3.00;;
27145;SDS011;17980;51.744;7.190;2022-11-18T03:39:24;3.93;;;3.27;;
27145;SDS011;17980;51.744;7.190;2022-11-18T03:41:54;4.40;;;3.20;;
27145;SDS011;17980;51.744;7.190;2022-11-18T03:44:24;4.13;;;2.90;;
27145;SDS011;17980;51.744;7.190;2022-11-18T03:46:55;5.23;;;2.70;;
27145;SDS011;17980;51.744;7.190;2022-11-18T03:49:26;6.47;;;3.33;;
27145;SDS011;17980;51.744;7.190;2022-11-18T03:52:02;6.67;;;3.20;;
27145;SDS011;17980;51.744;7.190;2022-11-18T03:54:28;9.40;;;4.17;;
27145;SDS011;17980;51.744;7.190;2022-11-18T03:56:59;6.03;;;3.90;;
27145;SDS011;17980;51.744;7.190;2022-11-18T03:59:31;7.13;;;3.60;;
27145;SDS011;17980;51.744;7.190;2022-11-18T04:02:02;10.90;;;4.03;;
27145;SDS011;17980;51.744;7.190;2022-11-18T04:04:32;6.40;;;3.47;;
27145;SDS011;17980;51.744;7.190;2022-11-18T04:07:01;11.97;;;3.73;;
27145;SDS011;17980;51.744;7.190;2022-11-18T04:09:32;5.93;;;3.20;;
27145;SDS011;17980;51.744;7.190;2022-11-18T04:12:02;10.17;;;5.27;;
27145;SDS011;17980;51.744;7.190;2022-11-18T04:14:33;9.93;;;8.20;;
27145;SDS011;17980;51.744;7.190;2022-11-18T04:17:05;6.40;;;5.47;;
27145;SDS011;17980;51.744;7.190;2022-11-18T04:19:34;8.27;;;4.50;;
27145;SDS011;17980;51.744;7.190;2022-11-18T04:22:02;7.90;;;4.30;;
27145;SDS011;17980;51.744;7.190;2022-11-18T04:24:29;8.30;;;4.60;;
27145;SDS011;17980;51.744;7.190;2022-11-18T04:26:56;6.80;;;4.67;;
27145;SDS011;17980;51.744;7.190;2022-11-18T04:29:24;11.13;;;5.30;;
27145;SDS011;17980;51.744;7.190;2022-11-18T04:31:51;7.60;;;5.00;;
27145;SDS011;17980;51.744;7.190;2022-11-18T04:34:18;7.43;;;4.67;;
27145;SDS011;17980;51.744;7.190;2022-11-18T04:36:46;13.20;;;5.63;;
27145;SDS011;17980;51.744;7.190;2022-11-18T04:39:13;7.03;;;5.30;;
27145;SDS011;17980;51.744;7.190;2022-11-18T04:41:40;6.73;;;4.43;;
27145;SDS011;17980;51.744;7.190;2022-11-18T04:44:23;7.23;;;4.30;;
27145;SDS011;17980;51.744;7.190;2022-11-18T04:46:51;8.97;;;4.97;;
27145;SDS011;17980;51.744;7.190;2022-11-18T04:49:19;7.07;;;5.33;;
27145;SDS011;17980;51.744;7.190;2022-11-18T04:51:47;6.27;;;4.40;;
27145;SDS011;17980;51.744;7.190;2022-11-18T04:54:19;10.50;;;5.00;;
27145;SDS011;17980;51.744;7.190;2022-11-18T04:56:47;8.50;;;4.50;;
27145;SDS011;17980;51.744;7.190;2022-11-18T04:59:15;5.37;;;3.90;;
27145;SDS011;17980;51.744;7.190;2022-11-18T05:01:46;5.50;;;3.70;;
27145;SDS011;17980;51.744;7.190;2022-11-18T05:04:15;6.13;;;4.20;;
27145;SDS011;17980;51.744;7.190;2022-11-18T05:06:43;6.70;;;3.60;;
27145;SDS011;17980;51.744;7.190;2022-11-18T05:09:11;5.77;;;3.80;;
27145;SDS011;17980;51.744;7.190;2022-11-18T05:11:48;5.50;;;3.40;;
27145;SDS011;17980;51.744;7.190;2022-11-18T05:14:33;5.73;;;3.87;;
27145;SDS011;17980;51.744;7.190;2022-11-18T05:17:01;8.33;;;4.43;;
27145;SDS011;17980;51.744;7.190;2022-11-18T05:19:38;6.13;;;4.10;;
27145;SDS011;17980;51.744;7.190;2022-11-18T05:24:42;6.70;;;4.27;;
27145;SDS011;17980;51.744;7.190;2022-11-18T05:27:10;6.93;;;3.73;;
27145;SDS011;17980;51.744;7.190;2022-11-18T05:29:38;8.97;;;4.70;;
27145;SDS011;17980;51.744;7.190;2022-11-18T05:32:14;5.97;;;4.30;;
27145;SDS011;17980;51.744;7.190;2022-11-18T05:34:42;5.60;;;4.30;;
27145;SDS011;17980;51.744;7.190;2022-11-18T05:37:09;11.40;;;5.17;;
27145;SDS011;17980;51.744;7.190;2022-11-18T05:39:36;6.00;;;3.50;;
27145;SDS011;17980;51.744;7.190;2022-11-18T05:42:04;6.50;;;3.80;;
27145;SDS011;17980;51.744;7.190;2022-11-18T05:44:42;6.13;;;3.77;;
27145;SDS011;17980;51.744;7.190;2022-11-18T05:47:10;7.80;;;3.43;;
27145;SDS011;17980;51.744;7.190;2022-11-18T05:49:37;8.50;;;3.70;;
27145;SDS011;17980;51.744;7.190;2022-11-18T05:52:14;8.63;;;4.37;;
27145;SDS011;17980;51.744;7.190;2022-11-18T05:54:41;8.90;;;3.50;;
27145;SDS011;17980;51.744;7.190;2022-11-18T05:57:21;7.20;;;3.70;;
27145;SDS011;17980;51.744;7.190;2022-11-18T05:59:48;6.40;;;4.17;;
27145;SDS011;17980;51.744;7.190;2022-11-18T06:02:25;6.47;;;3.63;;
27145;SDS011;17980;51.744;7.190;2022-11-18T06:04:55;7.60;;;4.20;;
27145;SDS011;17980;51.744;7.190;2022-11-18T06:07:34;4.10;;;3.40;;
27145;SDS011;17980;51.744;7.190;2022-11-18T06:10:05;9.27;;;4.53;;
27145;SDS011;17980;51.744;7.190;2022-11-18T06:12:45;6.30;;;4.40;;
27145;SDS011;17980;51.744;7.190;2022-11-18T06:15:17;7.87;;;3.97;;
27145;SDS011;17980;51.744;7.190;2022-11-18T06:17:55;5.67;;;3.70;;
27145;SDS011;17980;51.744;7.190;2022-11-18T06:20:24;7.33;;;4.67;;
27145;SDS011;17980;51.744;7.190;2022-11-18T06:23:01;5.57;;;3.73;;
27145;SDS011;17980;51.744;7.190;2022-11-18T06:25:29;6.77;;;4.20;;
27145;SDS011;17980;51.744;7.190;2022-11-18T06:27:57;7.07;;;4.07;;
27145;SDS011;17980;51.744;7.190;2022-11-18T06:30:26;11.10;;;5.50;;
27145;SDS011;17980;51.744;7.190;2022-11-18T06:33:04;7.70;;;5.03;;
27145;SDS011;17980;51.744;7.190;2022-11-18T06:35:31;9.77;;;4.63;;
27145;SDS011;17980;51.744;7.190;2022-11-18T06:37:59;13.53;;;6.30;;
27145;SDS011;17980;51.744;7.190;2022-11-18T06:40:26;6.93;;;4.77;;
27145;SDS011;17980;51.744;7.190;2022-11-18T06:43:04;9.00;;;5.67;;
27145;SDS011;17980;51.744;7.190;2022-11-18T06:45:50;8.40;;;5.10;;
27145;SDS011;17980;51.744;7.190;2022-11-18T06:48:36;6.10;;;5.10;;
27145;SDS011;17980;51.744;7.190;2022-11-18T06:51:04;12.37;;;6.33;;
27145;SDS011;17980;51.744;7.190;2022-11-18T06:53:41;10.57;;;5.27;;
27145;SDS011;17980;51.744;7.190;2022-11-18T06:56:09;8.73;;;5.43;;
27145;SDS011;17980;51.744;7.190;2022-11-18T06:58:38;8.03;;;5.63;;
27145;SDS011;17980;51.744;7.190;2022-11-18T07:01:15;11.87;;;6.03;;
27145;SDS011;17980;51.744;7.190;2022-11-18T07:03:46;7.53;;;5.43;;
27145;SDS011;17980;51.744;7.190;2022-11-18T07:06:24;10.47;;;5.43;;
27145;SDS011;17980;51.744;7.190;2022-11-18T07:08:52;8.03;;;5.47;;
27145;SDS011;17980;51.744;7.190;2022-11-18T07:11:20;10.27;;;5.83;;
27145;SDS011;17980;51.744;7.190;2022-11-18T07:13:57;10.30;;;5.17;;
27145;SDS011;17980;51.744;7.190;2022-11-18T07:16:25;7.07;;;5.60;;
27145;SDS011;17980;51.744;7.190;2022-11-18T07:18:53;9.60;;;5.27;;
27145;SDS011;17980;51.744;7.190;2022-11-18T07:21:22;9.20;;;5.70;;
27145;SDS011;17980;51.744;7.190;2022-11-18T07:23:59;9.13;;;5.13;;
27145;SDS011;17980;51.744;7.190;2022-11-18T07:26:26;11.87;;;5.30;;
27145;SDS011;17980;51.744;7.190;2022-11-18T07:29:04;6.97;;;5.30;;
27145;SDS011;17980;51.744;7.190;2022-11-18T07:31:31;9.80;;;5.13;;
27145;SDS011;17980;51.744;7.190;2022-11-18T07:34:08;9.43;;;5.30;;
27145;SDS011;17980;51.744;7.190;2022-11-18T07:36:37;8.67;;;5.17;;
27145;SDS011;17980;51.744;7.190;2022-11-18T07:39:16;8.70;;;5.00;;
27145;SDS011;17980;51.744;7.190;2022-11-18T07:41:44;11.37;;;5.67;;
27145;SDS011;17980;51.744;7.190;2022-11-18T07:44:11;8.37;;;5.53;;
27145;SDS011;17980;51.744;7.190;2022-11-18T07:46:38;9.13;;;5.90;;
27145;SDS011;17980;51.744;7.190;2022-11-18T07:49:06;10.70;;;6.80;;
27145;SDS011;17980;51.744;7.190;2022-11-18T07:51:35;12.67;;;7.10;;
27145;SDS011;17980;51.744;7.190;2022-11-18T07:54:12;11.67;;;7.50;;
27145;SDS011;17980;51.744;7.190;2022-11-18T07:56:41;9.07;;;6.87;;
27145;SDS011;17980;51.744;7.190;2022-11-18T07:59:08;11.57;;;7.27;;
27145;SDS011;17980;51.744;7.190;2022-11-18T08:04:19;9.30;;;6.20;;
27145;SDS011;17980;51.744;7.190;2022-11-18T08:06:46;10.77;;;7.00;;
27145;SDS011;17980;51.744;7.190;2022-11-18T08:09:13;12.00;;;6.77;;
27145;SDS011;17980;51.744;7.190;2022-11-18T08:11:40;11.03;;;6.27;;
27145;SDS011;17980;51.744;7.190;2022-11-18T08:14:17;10.93;;;6.17;;
27145;SDS011;17980;51.744;7.190;2022-11-18T08:16:46;10.40;;;5.53;;
27145;SDS011;17980;51.744;7.190;2022-11-18T08:19:13;7.73;;;5.80;;
27145;SDS011;17980;51.744;7.190;2022-11-18T08:21:41;10.13;;;5.40;;
27145;SDS011;17980;51.744;7.190;2022-11-18T08:24:17;12.47;;;5.83;;
27145;SDS011;17980;51.744;7.190;2022-11-18T08:26:45;11.47;;;7.80;;
27145;SDS011;17980;51.744;7.190;2022-11-18T08:29:12;6.20;;;5.53;;
27145;SDS011;17980;51.744;7.190;2022-11-18T08:31:39;10.80;;;5.30;;
27145;SDS011;17980;51.744;7.190;2022-11-18T08:34:16;10.83;;;5.97;;
27145;SDS011;17980;51.744;7.190;2022-11-18T08:36:43;13.83;;;6.43;;
27145;SDS011;17980;51.744;7.190;2022-11-18T08:39:10;9.13;;;5.93;;
27145;SDS011;17980;51.744;7.190;2022-11-18T08:41:53;9.90;;;5.73;;
27145;SDS011;17980;51.744;7.190;2022-11-18T08:44:22;13.13;;;6.03;;
27145;SDS011;17980;51.744;7.190;2022-11-18T08:47:01;8.27;;;6.67;;
27145;SDS011;17980;51.744;7.190;2022-11-18T08:49:29;10.27;;;5.93;;
27145;SDS011;17980;51.744;7.190;2022-11-18T08:51:56;7.13;;;5.17;;
27145;SDS011;17980;51.744;7.190;2022-11-18T08:54:33;9.60;;;5.27;;
27145;SDS011;17980;51.744;7.190;2022-11-18T08:57:00;9.27;;;5.37;;
27145;SDS011;17980;51.744;7.190;2022-11-18T08:59:27;10.47;;;5.30;;
27145;SDS011;17980;51.744;7.190;2022-11-18T09:02:04;10.87;;;5.50;;
27145;SDS011;17980;51.744;7.190;2022-11-18T09:04:33;9.93;;;4.67;;
27145;SDS011;17980;51.744;7.190;2022-11-18T09:07:10;9.47;;;5.20;;
27145;SDS011;17980;51.744;7.190;2022-11-18T09:09:37;11.77;;;4.70;;
27145;SDS011;17980;51.744;7.190;2022-11-18T09:12:05;8.43;;;5.40;;
27145;SDS011;17980;51.744;7.190;2022-11-18T09:14:42;13.13;;;5.47;;
27145;SDS011;17980;51.744;7.190;2022-11-18T09:17:10;10.40;;;4.90;;
27145;SDS011;17980;51.744;7.190;2022-11-18T09:19:38;7.77;;;5.33;;
27145;SDS011;17980;51.744;7.190;2022-11-18T09:22:15;8.83;;;5.70;;
27145;SDS011;17980;51.744;7.190;2022-11-18T09:24:43;6.60;;;5.13;;
27145;SDS011;17980;51.744;7.190;2022-11-18T09:27:19;11.17;;;5.63;;
27145;SDS011;17980;51.744;7.190;2022-11-18T09:29:47;9.27;;;5.03;;
27145;SDS011;17980;51.744;7.190;2022-11-18T09:32:14;11.03;;;5.90;;
27145;SDS011;17980;51.744;7.190;2022-11-18T09:34:51;8.30;;;6.17;;
27145;SDS011;17980;51.744;7.190;2022-11-18T09:37:18;11.13;;;6.30;;
27145;SDS011;17980;51.744;7.190;2022-11-18T09:39:45;11.00;;;5.43;;
27145;SDS011;17980;51.744;7.190;2022-11-18T09:42:22;11.10;;;5.97;;
27145;SDS011;17980;51.744;7.190;2022-11-18T09:45:07;15.17;;;5.43;;
27145;SDS011;17980;51.744;7.190;2022-11-18T09:47:39;9.70;;;5.63;;
27145;SDS011;17980;51.744;7.190;2022-11-18T09:52:56;7.77;;;5.67;;
27145;SDS011;17980;51.744;7.190;2022-11-18T09:55:28;7.03;;;4.90;;
27145;SDS011;17980;51.744;7.190;2022-11-18T09:58:05;13.50;;;5.77;;
27145;SDS011;17980;51.744;7.190;2022-11-18T10:00:35;9.30;;;5.90;;
27145;SDS011;17980;51.744;7.190;2022-11-18T10:03:25;9.60;;;7.47;;
27145;SDS011;17980;51.744;7.190;2022-11-18T10:05:54;9.57;;;6.00;;
27145;SDS011;17980;51.744;7.190;2022-11-18T10:08:34;14.53;;;6.80;;
27145;SDS011;17980;51.744;7.190;2022-11-18T10:11:05;11.23;;;5.93;;
27145;SDS011;17980;51.744;7.190;2022-11-18T10:13:47;12.70;;;6.00;;
27145;SDS011;17980;51.744;7.190;2022-11-18T10:16:21;10.20;;;6.37;;
27145;SDS011;17980;51.744;7.190;2022-11-18T10:18:54;13.10;;;5.77;;
27145;SDS011;17980;51.744;7.190;2022-11-18T10:21:36;10.03;;;5.97;;
27145;SDS011;17980;51.744;7.190;2022-11-18T10:24:09;9.90;;;5.27;;
27145;SDS011;17980;51.744;7.190;2022-11-18T10:26:49;8.10;;;5.50;;
27145;SDS011;17980;51.744;7.190;2022-11-18T10:29:20;6.73;;;5.40;;
27145;SDS011;17980;51.744;7.190;2022-11-18T10:31:55;12.27;;;6.60;;
27145;SDS011;17980;51.744;7.190;2022-11-18T10:34:26;8.17;;;5.30;;
27145;SDS011;17980;51.744;7.190;2022-11-18T10:37:03;10.03;;;5.73;;
27145;SDS011;17980;51.744;7.190;2022-11-18T10:39:32;10.03;;;5.80;;
27145;SDS011;17980;51.744;7.190;2022-11-18T10:42:02;13.27;;;6.10;;
27145;SDS011;17980;51.744;7.190;2022-11-18T10:44:39;12.60;;;6.53;;
27145;SDS011;17980;51.744;7.190;2022-11-18T10:47:23;8.93;;;7.17;;
27145;SDS011;17980;51.744;7.190;2022-11-18T10:49:53;20.13;;;18.03;;
27145;SDS011;17980;51.744;7.190;2022-11-18T10:52:31;13.83;;;11.20;;
27145;SDS011;17980;51.744;7.190;2022-11-18T10:55:04;14.40;;;9.53;;
27145;SDS011;17980;51.744;7.190;2022-11-18T10:57:58;9.73;;;8.43;;
27145;SDS011;17980;51.744;7.190;2022-11-18T11:00:31;11.33;;;8.70;;
27145;SDS011;17980;51.744;7.190;2022-11-18T11:03:32;27.87;;;21.10;;
27145;SDS011;17980;51.744;7.190;2022-11-18T11:09:24;21.17;;;11.93;;
27145;SDS011;17980;51.744;7.190;2022-11-18T11:11:59;15.50;;;11.03;;
27145;SDS011;17980;51.744;7.190;2022-11-18T11:14:29;13.00;;;9.97;;
27145;SDS011;17980;51.744;7.190;2022-11-18T11:17:18;14.10;;;10.20;;
27145;SDS011;17980;51.744;7.190;2022-11-18T11:19:51;15.43;;;10.40;;
27145;SDS011;17980;51.744;7.190;2022-11-18T11:22:29;20.43;;;11.33;;
27145;SDS011;17980;51.744;7.190;2022-11-18T11:24:56;18.40;;;10.40;;
27145;SDS011;17980;51.744;7.190;2022-11-18T11:27:40;14.37;;;10.83;;
27145;SDS011;17980;51.744;7.190;2022-11-18T11:30:13;15.50;;;10.30;;
27145;SDS011;17980;51.744;7.190;2022-11-18T11:32:58;18.23;;;11.77;;
27145;SDS011;17980;51.744;7.190;2022-11-18T11:38:36;19.23;;;12.50;;
27145;SDS011;17980;51.744;7.190;2022-11-18T11:43:48;18.63;;;12.80;;
27145;SDS011;17980;51.744;7.190;2022-11-18T11:46:26;15.03;;;11.50;;
27145;SDS011;17980;51.744;7.190;2022-11-18T11:49:09;21.53;;;12.97;;
27145;SDS011;17980;51.744;7.190;2022-11-18T11:51:44;16.90;;;12.47;;
27145;SDS011;17980;51.744;7.190;2022-11-18T11:54:26;20.57;;;12.87;;
27145;SDS011;17980;51.744;7.190;2022-11-18T12:02:37;16.87;;;13.50;;
27145;SDS011;17980;51.744;7.190;2022-11-18T12:05:17;18.43;;;14.83;;
27145;SDS011;17980;51.744;7.190;2022-11-18T12:07:57;18.40;;;14.60;;
27145;SDS011;17980;51.744;7.190;2022-11-18T12:10:28;16.47;;;13.40;;
27145;SDS011;17980;51.744;7.190;2022-11-18T12:13:10;16.97;;;13.70;;
27145;SDS011;17980;51.744;7.190;2022-11-18T12:15:52;15.67;;;13.63;;
27145;SDS011;17980;51.744;7.190;2022-11-18T12:18:25;20.47;;;13.90;;
27145;SDS011;17980;51.744;7.190;2022-11-18T12:21:02;19.57;;;12.77;;
27145;SDS011;17980;51.744;7.190;2022-11-18T12:23:30;14.50;;;11.83;;
27145;SDS011;17980;51.744;7.190;2022-11-18T12:26:08;18.87;;;12.67;;
27145;SDS011;17980;51.744;7.190;2022-11-18T12:28:36;17.53;;;13.87;;
27145;SDS011;17980;51.744;7.190;2022-11-18T12:31:32;20.03;;;13.93;;
27145;SDS011;17980;51.744;7.190;2022-11-18T12:34:04;18.93;;;13.00;;
27145;SDS011;17980;51.744;7.190;2022-11-18T12:37:18;18.27;;;13.33;;
27145;SDS011;17980;51.744;7.190;2022-11-18T12:39:47;23.37;;;13.43;;
27145;SDS011;17980;51.744;7.190;2022-11-18T12:42:36;17.40;;;12.67;;
27145;SDS011;17980;51.744;7.190;2022-11-18T12:48:25;16.67;;;12.43;;
27145;SDS011;17980;51.744;7.190;2022-11-18T12:50:53;14.73;;;12.20;;
27145;SDS011;17980;51.744;7.190;2022-11-18T12:53:32;20.13;;;12.87;;
27145;SDS011;17980;51.744;7.190;2022-11-18T12:56:09;20.47;;;12.93;;
27145;SDS011;17980;51.744;7.190;2022-11-18T12:58:41;22.53;;;12.67;;
27145;SDS011;17980;51.744;7.190;2022-11-18T13:01:20;18.67;;;13.27;;
27145;SDS011;17980;51.744;7.190;2022-11-18T13:03:49;20.57;;;12.60;;
27145;SDS011;17980;51.744;7.190;2022-11-18T13:06:27;21.33;;;12.33;;
27145;SDS011;17980;51.744;7.190;2022-11-18T13:08:57;15.83;;;11.43;;
27145;SDS011;17980;51.744;7.190;2022-11-18T13:14:16;17.93;;;11.33;;
27145;SDS011;17980;51.744;7.190;2022-11-18T13:17:22;14.50;;;11.83;;
27145;SDS011;17980;51.744;7.190;2022-11-18T13:20:18;15.90;;;10.83;;
27145;SDS011;17980;51.744;7.190;2022-11-18T13:22:49;14.27;;;12.77;;
27145;SDS011;17980;51.744;7.190;2022-11-18T13:25:26;19.13;;;12.80;;
27145;SDS011;17980;51.744;7.190;2022-11-18T13:27:55;14.07;;;12.57;;
27145;SDS011;17980;51.744;7.190;2022-11-18T13:30:26;16.50;;;13.07;;
27145;SDS011;17980;51.744;7.190;2022-11-18T13:33:08;14.90;;;12.73;;
27145;SDS011;17980;51.744;7.190;2022-11-18T13:38:18;18.80;;;13.13;;
27145;SDS011;17980;51.744;7.190;2022-11-18T13:40:47;18.17;;;12.07;;
27145;SDS011;17980;51.744;7.190;2022-11-18T13:43:24;16.40;;;11.33;;
27145;SDS011;17980;51.744;7.190;2022-11-18T13:48:28;16.83;;;10.87;;
27145;SDS011;17980;51.744;7.190;2022-11-18T13:50:56;16.87;;;10.63;;
27145;SDS011;17980;51.744;7.190;2022-11-18T13:53:27;17.40;;;11.57;;
27145;SDS011;17980;51.744;7.190;2022-11-18T13:58:41;19.87;;;11.00;;
27145;SDS011;17980;51.744;7.190;2022-11-18T14:01:12;15.20;;;10.13;;
27145;SDS011;17980;51.744;7.190;2022-11-18T14:03:47;12.83;;;10.03;;
27145;SDS011;17980;51.744;7.190;2022-11-18T14:06:26;14.97;;;9.83;;
27145;SDS011;17980;51.744;7.190;2022-11-18T14:09:04;16.43;;;10.47;;
27145;SDS011;17980;51.744;7.190;2022-11-18T14:11:34;11.17;;;9.90;;
27145;SDS011;17980;51.744;7.190;2022-11-18T14:14:15;17.17;;;11.63;;
27145;SDS011;17980;51.744;7.190;2022-11-18T14:16:53;13.77;;;10.97;;
27145;SDS011;17980;51.744;7.190;2022-11-18T14:19:29;19.00;;;12.90;;
27145;SDS011;17980;51.744;7.190;2022-11-18T14:22:02;17.13;;;13.40;;
27145;SDS011;17980;51.744;7.190;2022-11-18T14:24:42;18.10;;;13.27;;
27145;SDS011;17980;51.744;7.190;2022-11-18T14:27:28;14.60;;;13.20;;
27145;SDS011;17980;51.744;7.190;2022-11-18T14:30:27;18.97;;;14.10;;
27145;SDS011;17980;51.744;7.190;2022-11-18T14:33:18;17.63;;;14.30;;
27145;SDS011;17980;51.744;7.190;2022-11-18T14:36:07;15.43;;;13.77;;
27145;SDS011;17980;51.744;7.190;2022-11-18T14:38:39;19.40;;;16.43;;
27145;SDS011;17980;51.744;7.190;2022-11-18T14:41:09;20.73;;;16.43;;
27145;SDS011;17980;51.744;7.190;2022-11-18T14:43:37;20.87;;;17.70;;
27145;SDS011;17980;51.744;7.190;2022-11-18T14:46:15;20.07;;;17.90;;
27145;SDS011;17980;51.744;7.190;2022-11-18T14:48:46;23.17;;;18.30;;
27145;SDS011;17980;51.744;7.190;2022-11-18T14:51:14;18.83;;;16.87;;
27145;SDS011;17980;51.744;7.190;2022-11-18T14:53:42;20.17;;;18.07;;
27145;SDS011;17980;51.744;7.190;2022-11-18T14:56:21;22.23;;;17.67;;
27145;SDS011;17980;51.744;7.190;2022-11-18T15:01:26;22.33;;;19.10;;
27145;SDS011;17980;51.744;7.190;2022-11-18T15:03:54;23.63;;;20.13;;
27145;SDS011;17980;51.744;7.190;2022-11-18T15:06:30;23.00;;;19.50;;
27145;SDS011;17980;51.744;7.190;2022-11-18T15:08:58;22.83;;;19.37;;
27145;SDS011;17980;51.744;7.190;2022-11-18T15:11:25;25.83;;;20.20;;
27145;SDS011;17980;51.744;7.190;2022-11-18T15:13:52;22.13;;;19.70;;
27145;SDS011;17980;51.744;7.190;2022-11-18T15:16:29;26.23;;;20.47;;
27145;SDS011;17980;51.744;7.190;2022-11-18T15:18:58;24.70;;;21.27;;
27145;SDS011;17980;51.744;7.190;2022-11-18T15:21:27;24.57;;;20.60;;
27145;SDS011;17980;51.744;7.190;2022-11-18T15:23:54;23.17;;;20.67;;
27145;SDS011;17980;51.744;7.190;2022-11-18T15:26:33;24.10;;;20.77;;
27145;SDS011;17980;51.744;7.190;2022-11-18T15:29:03;24.73;;;20.13;;
27145;SDS011;17980;51.744;7.190;2022-11-18T15:31:30;30.00;;;20.60;;
27145;SDS011;17980;51.744;7.190;2022-11-18T15:34:08;25.60;;;20.87;;
27145;SDS011;17980;51.744;7.190;2022-11-18T15:36:45;25.97;;;19.43;;
27145;SDS011;17980;51.744;7.190;2022-11-18T15:39:12;23.70;;;19.80;;
27145;SDS011;17980;51.744;7.190;2022-11-18T15:41:40;21.63;;;18.00;;
27145;SDS011;17980;51.744;7.190;2022-11-18T15:44:17;24.20;;;19.13;;
27145;SDS011;17980;51.744;7.190;2022-11-18T15:46:44;20.30;;;16.93;;
27145;SDS011;17980;51.744;7.190;2022-11-18T15:49:12;17.90;;;15.97;;
27145;SDS011;17980;51.744;7.190;2022-11-18T15:51:42;17.80;;;15.20;;
27145;SDS011;17980;51.744;7.190;2022-11-18T15:54:19;16.03;;;14.17;;